Time;durP1;ratioP1;P1;durP2;ratioP2;P2;SDS_P1;SDS_P2;PMS_P1;PMS_P2;Temp;Humidity;BMP_temperature;BMP_pressure;BME280_temperature;BME280_humidity;BME280_pressure;Samples;Min_cycle;Max_cycle;Signal;HPM_P1;HPM_P2
2021/06/13 00:00:27;;;;;;;1.60;1.20;;;;;;;;;;5142585;27;20220;-74
2021/06/13 00:02:54;;;;;;;2.67;1.17;;;;;;;;;;5142550;27;20238;-73
2021/06/13 00:05:22;;;;;;;1.27;1.17;;;;;;;;;;5141955;27;20308;-73
2021/06/13 00:07:49;;;;;;;1.30;1.20;;;;;;;;;;5142196;27;20202;-73
2021/06/13 00:10:18;;;;;;;1.43;1.30;;;;;;;;;;5142094;27;20229;-73
2021/06/13 00:12:45;;;;;;;1.23;1.20;;;;;;;;;;5131283;27;20232;-73
2021/06/13 00:15:14;;;;;;;1.10;1.10;;;;;;;;;;5142039;27;20277;-73
2021/06/13 00:17:42;;;;;;;1.27;1.07;;;;;;;;;;5141597;27;20209;-74
2021/06/13 00:20:10;;;;;;;1.17;0.97;;;;;;;;;;5141812;27;20232;-73
2021/06/13 00:22:38;;;;;;;0.90;0.90;;;;;;;;;;5141482;27;20255;-74
2021/06/13 00:25:06;;;;;;;2.27;1.33;;;;;;;;;;5141840;27;20613;-73
2021/06/13 00:27:34;;;;;;;1.37;1.27;;;;;;;;;;5141057;27;20245;-73
2021/06/13 00:30:02;;;;;;;1.00;1.00;;;;;;;;;;5141614;27;20204;-73
2021/06/13 00:32:29;;;;;;;1.50;1.30;;;;;;;;;;5141642;27;20223;-73
2021/06/13 00:34:56;;;;;;;6.83;1.27;;;;;;;;;;5141547;27;20212;-73
2021/06/13 00:37:23;;;;;;;1.03;1.00;;;;;;;;;;5141410;27;20230;-73
2021/06/13 00:39:50;;;;;;;1.40;1.23;;;;;;;;;;5141461;27;20231;-73
2021/06/13 00:42:18;;;;;;;1.47;1.20;;;;;;;;;;5140811;27;20224;-73
2021/06/13 00:44:47;;;;;;;2.30;1.10;;;;;;;;;;5141211;27;20216;-73
2021/06/13 00:47:14;;;;;;;1.43;1.33;;;;;;;;;;5141045;27;20249;-73
2021/06/13 00:49:41;;;;;;;6.10;1.43;;;;;;;;;;5141377;27;20250;-73
2021/06/13 00:52:09;;;;;;;1.80;1.37;;;;;;;;;;5141169;27;20270;-73
2021/06/13 00:54:36;;;;;;;2.00;1.27;;;;;;;;;;5141302;27;20204;-73
2021/06/13 00:57:04;;;;;;;1.90;1.23;;;;;;;;;;5140664;27;20220;-73
2021/06/13 00:59:31;;;;;;;1.53;1.10;;;;;;;;;;5141122;27;20266;-73
2021/06/13 01:01:59;;;;;;;1.97;1.30;;;;;;;;;;5141027;27;20800;-73
2021/06/13 01:04:27;;;;;;;1.20;1.10;;;;;;;;;;5140292;27;20218;-73
2021/06/13 01:07:02;;;;;;;1.57;1.17;;;;;;;;;;5141218;27;20257;-73
2021/06/13 01:09:32;;;;;;;1.30;1.20;;;;;;;;;;5141000;27;20203;-73
2021/06/13 01:12:02;;;;;;;1.20;1.10;;;;;;;;;;5136052;27;20254;-73
2021/06/13 01:14:36;;;;;;;1.00;1.00;;;;;;;;;;5136890;27;20204;-73
2021/06/13 01:17:08;;;;;;;1.40;1.30;;;;;;;;;;5141447;27;20211;-73
2021/06/13 01:19:39;;;;;;;2.10;1.10;;;;;;;;;;5141016;27;20228;-73
2021/06/13 01:22:15;;;;;;;1.67;1.27;;;;;;;;;;5140749;27;20224;-73
2021/06/13 01:24:51;;;;;;;1.50;1.40;;;;;;;;;;5140756;27;20199;-73
2021/06/13 01:27:25;;;;;;;1.70;1.30;;;;;;;;;;5140220;27;20215;-73
2021/06/13 01:29:55;;;;;;;1.03;1.00;;;;;;;;;;5140134;27;20244;-73
2021/06/13 01:32:24;;;;;;;2.53;1.30;;;;;;;;;;5140051;27;20238;-73
2021/06/13 01:34:53;;;;;;;1.10;1.00;;;;;;;;;;5140424;27;20652;-73
2021/06/13 01:37:21;;;;;;;0.80;0.80;;;;;;;;;;5140353;27;20210;-73
2021/06/13 01:39:51;;;;;;;1.30;1.20;;;;;;;;;;5140321;27;20262;-73
2021/06/13 01:42:18;;;;;;;1.50;1.40;;;;;;;;;;5139753;27;20226;-73
2021/06/13 01:44:48;;;;;;;2.53;1.10;;;;;;;;;;5140385;27;20606;-73
2021/06/13 01:47:17;;;;;;;1.23;1.10;;;;;;;;;;5140181;27;20202;-73
2021/06/13 01:49:45;;;;;;;1.20;1.10;;;;;;;;;;5139972;27;20210;-73
2021/06/13 01:52:13;;;;;;;1.27;1.17;;;;;;;;;;5140133;27;20231;-73
2021/06/13 01:54:41;;;;;;;1.20;0.97;;;;;;;;;;5140211;27;20207;-73
2021/06/13 01:57:09;;;;;;;1.67;1.00;;;;;;;;;;5139245;27;20271;-73
2021/06/13 01:59:39;;;;;;;1.10;1.10;;;;;;;;;;5139779;27;20233;-73
2021/06/13 02:02:07;;;;;;;1.90;1.10;;;;;;;;;;5139917;27;20251;-73
2021/06/13 02:04:36;;;;;;;1.50;1.40;;;;;;;;;;5139505;27;20242;-73
2021/06/13 02:07:04;;;;;;;1.87;1.10;;;;;;;;;;5139877;27;20206;-73
2021/06/13 02:09:32;;;;;;;3.03;1.20;;;;;;;;;;5139736;27;20233;-73
2021/06/13 02:12:00;;;;;;;1.47;1.37;;;;;;;;;;5134553;27;20221;-73
2021/06/13 02:14:28;;;;;;;1.37;1.27;;;;;;;;;;5134901;27;20212;-73
2021/06/13 02:16:56;;;;;;;4.03;1.37;;;;;;;;;;5139671;27;20200;-73
2021/06/13 02:19:24;;;;;;;2.00;1.23;;;;;;;;;;5139448;27;20205;-73
2021/06/13 02:21:55;;;;;;;1.30;1.20;;;;;;;;;;5139494;27;20228;-73
2021/06/13 02:24:23;;;;;;;2.93;1.30;;;;;;;;;;5139651;27;20228;-73
2021/06/13 02:26:51;;;;;;;3.73;1.50;;;;;;;;;;5138865;27;20246;-72
2021/06/13 02:29:19;;;;;;;1.40;1.30;;;;;;;;;;5139423;27;20255;-73
2021/06/13 02:31:47;;;;;;;1.07;0.97;;;;;;;;;;5139043;27;20643;-73
2021/06/13 02:34:17;;;;;;;2.40;1.10;;;;;;;;;;5139177;27;20208;-73
2021/06/13 02:36:45;;;;;;;1.87;1.10;;;;;;;;;;5139350;27;20239;-73
2021/06/13 02:39:14;;;;;;;1.50;1.17;;;;;;;;;;5139205;27;20232;-75
2021/06/13 02:41:41;;;;;;;1.60;1.13;;;;;;;;;;5138797;27;20233;-73
2021/06/13 02:44:08;;;;;;;1.03;1.00;;;;;;;;;;5139153;27;20656;-73
2021/06/13 02:46:36;;;;;;;1.10;1.10;;;;;;;;;;5139231;27;20205;-74
2021/06/13 02:49:04;;;;;;;0.90;0.90;;;;;;;;;;5140437;27;20206;-73
2021/06/13 02:51:32;;;;;;;1.13;0.83;;;;;;;;;;5139973;27;20230;-74
2021/06/13 02:54:01;;;;;;;1.73;1.00;;;;;;;;;;5139195;27;20209;-73
2021/06/13 02:56:33;;;;;;;3.53;1.30;;;;;;;;;;5138410;27;20215;-73
2021/06/13 02:59:04;;;;;;;1.30;1.10;;;;;;;;;;5139248;27;20641;-73
2021/06/13 03:01:33;;;;;;;1.87;1.77;;;;;;;;;;5138615;28;20236;-73
2021/06/13 03:04:01;;;;;;;0.90;0.90;;;;;;;;;;5139038;28;20244;-73
2021/06/13 03:06:29;;;;;;;1.50;1.40;;;;;;;;;;5139024;28;20259;-73
2021/06/13 03:08:57;;;;;;;2.97;1.17;;;;;;;;;;5138993;28;20216;-73
2021/06/13 03:11:24;;;;;;;0.90;0.90;;;;;;;;;;5138432;28;20221;-73
2021/06/13 03:13:54;;;;;;;2.10;0.90;;;;;;;;;;5138697;28;20236;-73
2021/06/13 03:16:21;;;;;;;0.90;0.90;;;;;;;;;;5138624;28;20267;-73
2021/06/13 03:18:50;;;;;;;0.93;0.90;;;;;;;;;;5138609;28;20205;-73
2021/06/13 03:21:18;;;;;;;1.03;0.90;;;;;;;;;;5138601;28;20233;-73
2021/06/13 03:23:47;;;;;;;1.10;1.00;;;;;;;;;;5138572;28;20208;-73
2021/06/13 03:26:15;;;;;;;1.60;1.27;;;;;;;;;;5124975;28;20204;-73
2021/06/13 03:28:44;;;;;;;0.90;0.90;;;;;;;;;;5141252;27;20204;-73
2021/06/13 03:31:13;;;;;;;1.33;0.90;;;;;;;;;;5142580;27;20233;-73
2021/06/13 03:33:42;;;;;;;1.50;0.70;;;;;;;;;;5142965;27;20201;-73
2021/06/13 03:36:11;;;;;;;0.93;0.93;;;;;;;;;;5142952;27;20213;-74
2021/06/13 03:38:38;;;;;;;1.57;1.20;;;;;;;;;;5142479;27;20277;-73
2021/06/13 03:41:07;;;;;;;2.63;1.10;;;;;;;;;;5142274;27;20228;-73
2021/06/13 03:43:35;;;;;;;1.87;1.00;;;;;;;;;;5142629;27;20607;-73
2021/06/13 03:46:03;;;;;;;2.87;1.20;;;;;;;;;;5142633;27;20234;-73
2021/06/13 03:48:33;;;;;;;1.40;1.20;;;;;;;;;;5142457;27;20204;-73
2021/06/13 03:51:02;;;;;;;1.10;1.00;;;;;;;;;;5142770;27;20552;-73
2021/06/13 03:53:30;;;;;;;1.40;1.03;;;;;;;;;;5142187;27;20212;-73
2021/06/13 03:56:00;;;;;;;1.47;0.73;;;;;;;;;;5141910;27;20205;-73
2021/06/13 03:58:28;;;;;;;0.83;0.83;;;;;;;;;;5142198;27;20208;-73
2021/06/13 04:00:56;;;;;;;1.50;0.80;;;;;;;;;;5142605;27;20220;-73
2021/06/13 04:03:25;;;;;;;1.17;0.87;;;;;;;;;;5142293;27;20205;-73
2021/06/13 04:05:54;;;;;;;1.43;1.10;;;;;;;;;;5142278;27;20206;-73
2021/06/13 04:08:22;;;;;;;1.23;1.10;;;;;;;;;;5142227;27;20258;-73
2021/06/13 04:10:51;;;;;;;1.10;1.00;;;;;;;;;;5141657;27;20206;-73
2021/06/13 04:13:19;;;;;;;1.00;1.00;;;;;;;;;;5132008;27;20202;-74
2021/06/13 04:15:47;;;;;;;1.30;0.90;;;;;;;;;;5142085;27;20209;-73
2021/06/13 04:18:15;;;;;;;1.37;1.03;;;;;;;;;;5141748;27;20234;-73
2021/06/13 04:20:44;;;;;;;2.07;1.53;;;;;;;;;;5141908;27;20225;-73
2021/06/13 04:23:15;;;;;;;1.93;0.97;;;;;;;;;;5141792;27;20294;-73
2021/06/13 04:25:44;;;;;;;2.10;1.00;;;;;;;;;;5141488;27;20255;-73
2021/06/13 04:28:12;;;;;;;2.60;0.90;;;;;;;;;;5141682;27;20257;-72
2021/06/13 04:30:40;;;;;;;2.10;1.03;;;;;;;;;;5141558;27;20269;-73
2021/06/13 04:33:10;;;;;;;2.37;1.00;;;;;;;;;;5141549;27;20587;-74
2021/06/13 04:35:37;;;;;;;0.97;0.93;;;;;;;;;;5141628;27;20205;-74
2021/06/13 04:38:05;;;;;;;0.80;0.80;;;;;;;;;;5141454;27;20205;-73
2021/06/13 04:40:34;;;;;;;0.80;0.80;;;;;;;;;;5139737;27;20210;-73
2021/06/13 04:43:02;;;;;;;3.60;0.90;;;;;;;;;;5141118;27;20229;-73
2021/06/13 04:45:30;;;;;;;1.17;1.10;;;;;;;;;;5141395;27;20210;-73
2021/06/13 04:47:59;;;;;;;0.83;0.83;;;;;;;;;;5141802;27;20274;-73
2021/06/13 04:50:27;;;;;;;1.33;1.07;;;;;;;;;;5141290;27;20207;-71
2021/06/13 04:52:54;;;;;;;1.00;0.90;;;;;;;;;;5141397;27;20266;-72
2021/06/13 04:55:27;;;;;;;1.90;1.10;;;;;;;;;;5141224;27;20678;-71
2021/06/13 04:58:01;;;;;;;1.17;0.90;;;;;;;;;;5141183;27;20230;-72
2021/06/13 05:00:29;;;;;;;1.23;1.10;;;;;;;;;;5141233;27;20232;-72
2021/06/13 05:02:57;;;;;;;1.10;0.97;;;;;;;;;;5140712;27;20230;-72
2021/06/13 05:05:25;;;;;;;1.57;1.30;;;;;;;;;;5141353;27;20214;-72
2021/06/13 05:07:52;;;;;;;1.83;0.90;;;;;;;;;;5141890;27;20205;-72
2021/06/13 05:10:20;;;;;;;1.37;0.97;;;;;;;;;;5141386;27;20231;-73
2021/06/13 05:12:49;;;;;;;3.13;1.20;;;;;;;;;;5130786;27;20213;-73
2021/06/13 05:15:19;;;;;;;2.80;1.23;;;;;;;;;;5140600;27;20266;-73
2021/06/13 05:17:47;;;;;;;1.27;1.17;;;;;;;;;;5141000;27;20201;-73
2021/06/13 05:20:15;;;;;;;0.90;0.90;;;;;;;;;;5140521;27;20246;-73
2021/06/13 05:22:50;;;;;;;1.50;1.00;;;;;;;;;;5140508;27;20236;-72
2021/06/13 05:25:18;;;;;;;2.43;0.90;;;;;;;;;;5140415;27;20203;-73
2021/06/13 05:27:45;;;;;;;1.20;1.20;;;;;;;;;;5140071;27;20205;-73
2021/06/13 05:30:14;;;;;;;1.03;0.90;;;;;;;;;;5140478;27;20262;-73
2021/06/13 05:32:43;;;;;;;1.23;1.13;;;;;;;;;;5140093;27;20213;-72
2021/06/13 05:35:11;;;;;;;1.37;1.20;;;;;;;;;;5140510;27;20210;-72
2021/06/13 05:37:38;;;;;;;2.93;1.00;;;;;;;;;;5140373;27;20211;-72
2021/06/13 05:40:07;;;;;;;2.90;1.17;;;;;;;;;;5140412;27;20210;-73
2021/06/13 05:42:35;;;;;;;1.30;1.20;;;;;;;;;;5139924;27;20291;-72
2021/06/13 05:45:04;;;;;;;1.63;1.20;;;;;;;;;;5140194;27;20252;-72
2021/06/13 05:47:31;;;;;;;1.27;1.13;;;;;;;;;;5140362;27;20209;-73
2021/06/13 05:50:00;;;;;;;2.80;1.13;;;;;;;;;;5140671;27;20300;-73
2021/06/13 05:52:28;;;;;;;4.67;1.27;;;;;;;;;;5140729;27;20248;-73
2021/06/13 05:54:57;;;;;;;1.90;1.40;;;;;;;;;;5140373;27;20265;-72
2021/06/13 05:57:30;;;;;;;1.20;1.10;;;;;;;;;;5139678;27;20216;-72
2021/06/13 05:59:58;;;;;;;1.07;1.07;;;;;;;;;;5139996;27;20258;-73
2021/06/13 06:02:26;;;;;;;4.83;1.33;;;;;;;;;;5139760;27;20626;-73
2021/06/13 06:04:53;;;;;;;1.07;1.00;;;;;;;;;;5139616;27;20210;-73
2021/06/13 06:07:23;;;;;;;3.10;1.40;;;;;;;;;;5139844;27;20211;-72
2021/06/13 06:09:50;;;;;;;1.60;1.00;;;;;;;;;;5139788;27;20568;-71
2021/06/13 06:12:18;;;;;;;5.50;1.43;;;;;;;;;;5132109;27;20219;-73
2021/06/13 06:14:46;;;;;;;1.57;0.90;;;;;;;;;;5138533;27;20286;-73
2021/06/13 06:17:14;;;;;;;2.63;1.40;;;;;;;;;;5139642;27;20233;-73
2021/06/13 06:19:42;;;;;;;2.53;1.00;;;;;;;;;;5139709;27;20654;-71
2021/06/13 06:22:10;;;;;;;1.30;1.20;;;;;;;;;;5139217;27;20292;-72
2021/06/13 06:24:39;;;;;;;1.40;1.20;;;;;;;;;;5139503;27;20236;-71
2021/06/13 06:27:07;;;;;;;2.40;1.33;;;;;;;;;;5138559;27;20253;-71
2021/06/13 06:29:34;;;;;;;3.27;1.43;;;;;;;;;;5139467;27;20549;-70
2021/06/13 06:32:02;;;;;;;2.23;1.30;;;;;;;;;;5138872;27;20718;-72
2021/06/13 06:34:30;;;;;;;1.23;1.13;;;;;;;;;;5126066;27;20252;-69
2021/06/13 06:36:57;;;;;;;3.17;1.27;;;;;;;;;;5139117;27;20252;-71
2021/06/13 06:39:25;;;;;;;10.53;1.70;;;;;;;;;;5139491;27;20253;-71
2021/06/13 06:41:54;;;;;;;1.67;1.20;;;;;;;;;;5138756;27;21124;-70
2021/06/13 06:44:22;;;;;;;1.20;1.07;;;;;;;;;;5139096;27;20215;-71
2021/06/13 06:46:50;;;;;;;1.20;1.20;;;;;;;;;;5139175;27;20232;-71
2021/06/13 06:49:17;;;;;;;1.40;1.30;;;;;;;;;;5139204;27;20377;-71
2021/06/13 06:51:45;;;;;;;1.67;1.40;;;;;;;;;;5138604;27;20235;-71
2021/06/13 06:54:13;;;;;;;1.40;1.23;;;;;;;;;;5138829;27;20245;-72
2021/06/13 06:56:40;;;;;;;1.70;1.57;;;;;;;;;;5138390;27;20200;-71
2021/06/13 06:59:09;;;;;;;1.40;1.30;;;;;;;;;;5138777;27;20633;-71
2021/06/13 07:01:38;;;;;;;1.93;1.83;;;;;;;;;;5132337;27;20226;-71
2021/06/13 07:04:06;;;;;;;2.77;1.83;;;;;;;;;;5130695;28;20283;-70
2021/06/13 07:06:34;;;;;;;2.17;1.40;;;;;;;;;;5131917;28;20241;-71
2021/06/13 07:09:02;;;;;;;1.60;1.50;;;;;;;;;;5129019;28;20267;-69
2021/06/13 07:11:29;;;;;;;1.67;1.57;;;;;;;;;;5129588;28;20223;-69
2021/06/13 07:13:57;;;;;;;1.83;1.40;;;;;;;;;;5129002;28;20192;-70
2021/06/13 07:16:26;;;;;;;4.00;1.70;;;;;;;;;;5133088;28;20648;-71
2021/06/13 07:18:54;;;;;;;1.60;1.50;;;;;;;;;;5128193;28;20262;-69
2021/06/13 07:21:21;;;;;;;1.93;1.10;;;;;;;;;;5132848;28;20217;-70
2021/06/13 07:23:49;;;;;;;4.30;1.30;;;;;;;;;;5131114;28;20219;-69
2021/06/13 07:26:17;;;;;;;5.40;1.80;;;;;;;;;;5129252;28;20202;-69
2021/06/13 07:28:45;;;;;;;1.63;1.50;;;;;;;;;;5136935;28;20271;-70
2021/06/13 07:31:12;;;;;;;1.50;1.40;;;;;;;;;;5138217;28;20233;-70
2021/06/13 07:33:41;;;;;;;2.30;2.10;;;;;;;;;;5133942;28;20222;-70
2021/06/13 07:36:09;;;;;;;2.10;1.60;;;;;;;;;;5130966;28;20223;-71
2021/06/13 07:38:37;;;;;;;3.37;1.40;;;;;;;;;;5137225;28;20251;-71
2021/06/13 07:41:05;;;;;;;3.27;1.63;;;;;;;;;;5136798;28;20202;-71
2021/06/13 07:43:32;;;;;;;2.93;1.50;;;;;;;;;;5136371;28;20250;-71
2021/06/13 07:46:00;;;;;;;3.97;1.87;;;;;;;;;;5138038;28;20656;-71
2021/06/13 07:48:28;;;;;;;3.00;1.70;;;;;;;;;;5136728;28;20199;-71
2021/06/13 07:50:57;;;;;;;2.93;1.63;;;;;;;;;;5137074;28;20245;-71
2021/06/13 07:53:25;;;;;;;2.30;1.90;;;;;;;;;;5135783;28;20196;-71
2021/06/13 07:55:52;;;;;;;2.83;1.97;;;;;;;;;;5136390;27;20195;-71
2021/06/13 07:58:20;;;;;;;3.00;1.93;;;;;;;;;;5137166;27;20209;-71
2021/06/13 08:00:50;;;;;;;1.93;1.83;;;;;;;;;;5138261;28;20212;-71
2021/06/13 08:03:18;;;;;;;2.30;1.50;;;;;;;;;;5136111;28;20228;-70
2021/06/13 08:05:45;;;;;;;1.70;1.60;;;;;;;;;;5137806;28;20259;-68
2021/06/13 08:08:14;;;;;;;2.00;1.90;;;;;;;;;;5138473;28;20241;-69
2021/06/13 08:10:42;;;;;;;2.77;1.47;;;;;;;;;;5135906;28;20229;-68
2021/06/13 08:13:10;;;;;;;2.63;1.90;;;;;;;;;;5137276;27;20325;-68
2021/06/13 08:15:39;;;;;;;1.70;1.60;;;;;;;;;;5141660;27;20202;-69
2021/06/13 08:18:07;;;;;;;2.20;1.60;;;;;;;;;;5137846;27;20200;-69
2021/06/13 08:20:35;;;;;;;3.97;2.00;;;;;;;;;;5136622;27;20206;-68
2021/06/13 08:23:03;;;;;;;3.10;2.10;;;;;;;;;;5138323;27;20227;-68
2021/06/13 08:25:32;;;;;;;2.53;1.53;;;;;;;;;;5138552;27;20201;-68
2021/06/13 08:28:00;;;;;;;1.80;1.70;;;;;;;;;;5140805;27;20205;-68
2021/06/13 08:30:27;;;;;;;2.60;1.70;;;;;;;;;;5141496;27;20281;-68
2021/06/13 08:32:55;;;;;;;1.60;1.50;;;;;;;;;;5135474;27;20227;-68
2021/06/13 08:35:23;;;;;;;2.67;1.57;;;;;;;;;;5136664;27;20217;-68
2021/06/13 08:37:51;;;;;;;1.87;1.33;;;;;;;;;;5140817;27;20329;-68
2021/06/13 08:40:19;;;;;;;2.00;1.90;;;;;;;;;;5141579;27;20687;-68
2021/06/13 08:42:49;;;;;;;2.07;1.60;;;;;;;;;;5139267;27;20219;-68
2021/06/13 08:45:17;;;;;;;2.10;1.70;;;;;;;;;;5141596;27;20201;-68
2021/06/13 08:47:45;;;;;;;1.57;1.47;;;;;;;;;;5140341;27;20605;-68
2021/06/13 08:50:13;;;;;;;2.87;1.50;;;;;;;;;;5140160;27;20668;-68
2021/06/13 08:52:40;;;;;;;1.50;1.30;;;;;;;;;;5141206;27;20261;-68
2021/06/13 08:55:09;;;;;;;2.10;1.80;;;;;;;;;;5137885;27;20732;-68
2021/06/13 08:57:37;;;;;;;1.87;1.60;;;;;;;;;;5142190;27;20273;-69
2021/06/13 09:00:08;;;;;;;1.67;1.40;;;;;;;;;;5138135;27;20203;-68
2021/06/13 09:02:35;;;;;;;1.90;1.80;;;;;;;;;;5140997;27;20228;-68
2021/06/13 09:05:04;;;;;;;1.90;1.60;;;;;;;;;;5141036;27;20226;-68
2021/06/13 09:07:31;;;;;;;1.80;1.27;;;;;;;;;;5140981;27;20262;-68
2021/06/13 09:10:07;;;;;;;2.47;1.60;;;;;;;;;;5140933;27;20673;-68
2021/06/13 09:12:36;;;;;;;1.67;1.57;;;;;;;;;;5136592;27;20221;-67
2021/06/13 09:15:04;;;;;;;1.70;1.60;;;;;;;;;;5138935;27;20192;-68
2021/06/13 09:17:33;;;;;;;3.73;1.80;;;;;;;;;;5140687;27;20306;-68
2021/06/13 09:20:03;;;;;;;2.23;1.90;;;;;;;;;;5140761;27;20294;-69
2021/06/13 09:22:31;;;;;;;2.13;1.63;;;;;;;;;;5140117;27;20272;-71
2021/06/13 09:25:05;;;;;;;5.97;1.90;;;;;;;;;;5139975;27;20264;-70
2021/06/13 09:27:33;;;;;;;3.10;1.90;;;;;;;;;;5139480;27;20200;-71
2021/06/13 09:30:01;;;;;;;3.20;1.70;;;;;;;;;;5137887;27;20197;-70
2021/06/13 09:32:28;;;;;;;3.10;1.93;;;;;;;;;;5137086;27;20270;-68
2021/06/13 09:35:17;;;;;;;2.03;1.83;;;;;;;;;;5134121;27;20200;-68
2021/06/13 09:37:59;;;;;;;3.63;1.77;;;;;;;;;;5126344;27;20205;-69
2021/06/13 09:40:29;;;;;;;4.73;2.10;;;;;;;;;;5135649;27;20205;-68
2021/06/13 09:42:56;;;;;;;2.80;1.80;;;;;;;;;;5132195;27;20596;-68
2021/06/13 09:45:24;;;;;;;3.07;2.20;;;;;;;;;;5134359;27;20308;-69
2021/06/13 09:48:00;;;;;;;2.70;2.10;;;;;;;;;;5131916;27;20207;-69
2021/06/13 09:50:37;;;;;;;2.20;2.10;;;;;;;;;;5132474;27;20195;-69
2021/06/13 09:53:18;;;;;;;2.53;2.33;;;;;;;;;;5132603;27;20229;-69
2021/06/13 09:55:47;;;;;;;2.20;2.00;;;;;;;;;;5132284;27;20224;-71
2021/06/13 09:58:16;;;;;;;3.37;1.80;;;;;;;;;;5132725;27;20209;-71
2021/06/13 10:00:44;;;;;;;2.13;1.93;;;;;;;;;;5131946;27;20209;-71
2021/06/13 10:03:21;;;;;;;3.83;2.17;;;;;;;;;;5131122;27;20279;-74
2021/06/13 10:05:54;;;;;;;1.80;1.70;;;;;;;;;;5130820;27;20202;-73
2021/06/13 10:08:22;;;;;;;4.40;2.20;;;;;;;;;;5132356;27;20202;-73
2021/06/13 10:10:54;;;;;;;2.90;2.07;;;;;;;;;;5135048;27;20204;-73
2021/06/13 10:13:21;;;;;;;3.70;2.10;;;;;;;;;;5129873;27;20208;-73
2021/06/13 10:15:50;;;;;;;2.60;2.40;;;;;;;;;;5129744;27;20210;-73
2021/06/13 10:18:20;;;;;;;3.13;2.10;;;;;;;;;;5134041;27;20777;-73
2021/06/13 10:20:47;;;;;;;2.13;1.60;;;;;;;;;;5134219;27;20564;-73
2021/06/13 10:23:15;;;;;;;2.87;2.67;;;;;;;;;;5127611;27;20223;-73
2021/06/13 10:25:43;;;;;;;4.83;2.20;;;;;;;;;;5132150;27;20227;-77
2021/06/13 10:28:12;;;;;;;2.63;2.43;;;;;;;;;;5132283;27;20204;-72
2021/06/13 10:30:40;;;;;;;1.97;1.87;;;;;;;;;;5132924;27;20254;-72
2021/06/13 10:33:08;;;;;;;1.70;1.60;;;;;;;;;;5132741;27;20220;-73
2021/06/13 10:35:36;;;;;;;2.77;2.20;;;;;;;;;;5133803;27;20532;-73
2021/06/13 10:38:04;;;;;;;1.97;1.87;;;;;;;;;;5131961;27;20201;-73
2021/06/13 10:40:32;;;;;;;3.73;2.47;;;;;;;;;;5128135;27;20232;-72
2021/06/13 10:43:00;;;;;;;3.67;2.67;;;;;;;;;;5130049;27;20225;-72
2021/06/13 10:45:32;;;;;;;3.37;2.83;;;;;;;;;;5131612;27;20228;-72
2021/06/13 10:48:03;;;;;;;2.93;2.30;;;;;;;;;;5128793;27;20736;-72
2021/06/13 10:50:34;;;;;;;2.67;2.43;;;;;;;;;;5134659;27;20243;-72
2021/06/13 10:53:02;;;;;;;2.67;2.47;;;;;;;;;;5130212;27;20256;-72
2021/06/13 10:55:45;;;;;;;2.23;2.03;;;;;;;;;;5130837;27;20213;-73
2021/06/13 10:58:12;;;;;;;2.47;2.20;;;;;;;;;;5133291;27;20199;-73
2021/06/13 11:00:42;;;;;;;2.30;2.10;;;;;;;;;;5126601;28;20649;-73
2021/06/13 11:03:15;;;;;;;2.53;2.33;;;;;;;;;;5130975;28;20313;-72
2021/06/13 11:05:44;;;;;;;2.27;2.17;;;;;;;;;;5131524;28;20218;-73
2021/06/13 11:08:12;;;;;;;3.30;2.73;;;;;;;;;;5131965;28;20246;-73
2021/06/13 11:10:40;;;;;;;5.13;4.20;;;;;;;;;;5134269;28;20206;-71
2021/06/13 11:13:10;;;;;;;3.03;2.83;;;;;;;;;;5126717;28;20226;-72
2021/06/13 11:15:49;;;;;;;4.67;3.23;;;;;;;;;;5130582;28;20554;-72
2021/06/13 11:18:18;;;;;;;2.67;2.47;;;;;;;;;;5130328;28;20204;-73
2021/06/13 11:20:49;;;;;;;3.07;2.33;;;;;;;;;;5131822;28;20202;-68
2021/06/13 11:23:31;;;;;;;2.90;2.20;;;;;;;;;;5130680;28;20269;-71
2021/06/13 11:26:00;;;;;;;2.43;2.20;;;;;;;;;;5130138;28;20253;-71
2021/06/13 11:28:28;;;;;;;3.70;2.70;;;;;;;;;;5134868;28;20199;-72
2021/06/13 11:31:00;;;;;;;3.10;2.37;;;;;;;;;;5134068;28;20239;-72
2021/06/13 11:33:36;;;;;;;2.30;2.07;;;;;;;;;;5127436;28;20289;-71
2021/06/13 11:36:05;;;;;;;2.40;2.20;;;;;;;;;;5121267;28;20602;-70
2021/06/13 11:38:34;;;;;;;2.30;2.10;;;;;;;;;;5134037;28;20649;-71
2021/06/13 11:41:03;;;;;;;4.57;2.60;;;;;;;;;;5134142;28;20212;-70
2021/06/13 11:43:45;;;;;;;4.00;2.47;;;;;;;;;;5135486;28;20208;-73
2021/06/13 11:46:14;;;;;;;4.33;2.13;;;;;;;;;;5128375;28;20273;-73
2021/06/13 11:48:51;;;;;;;2.63;2.23;;;;;;;;;;5130313;27;20202;-69
2021/06/13 11:51:20;;;;;;;3.87;2.13;;;;;;;;;;5133481;27;20685;-67
2021/06/13 11:54:05;;;;;;;3.83;2.33;;;;;;;;;;5137359;27;20203;-69
2021/06/13 11:56:39;;;;;;;2.90;2.50;;;;;;;;;;5134036;27;20226;-70
2021/06/13 11:59:07;;;;;;;3.90;2.30;;;;;;;;;;5135469;27;20202;-70
2021/06/13 12:01:37;;;;;;;5.33;2.40;;;;;;;;;;5132598;27;20228;-69
2021/06/13 12:04:06;;;;;;;4.60;2.50;;;;;;;;;;5129397;27;20562;-70
2021/06/13 12:06:35;;;;;;;3.57;2.30;;;;;;;;;;5125658;27;20683;-70
2021/06/13 12:09:05;;;;;;;2.70;2.50;;;;;;;;;;5125095;27;20663;-69
2021/06/13 12:11:38;;;;;;;2.47;2.27;;;;;;;;;;5137759;27;20228;-69
2021/06/13 12:14:22;;;;;;;3.53;2.20;;;;;;;;;;5133597;27;20208;-69
2021/06/13 12:16:52;;;;;;;2.30;2.10;;;;;;;;;;5134848;27;20608;-70
2021/06/13 12:19:29;;;;;;;2.07;1.97;;;;;;;;;;5134367;27;20197;-67
2021/06/13 12:22:12;;;;;;;3.40;2.30;;;;;;;;;;5132302;27;21119;-68
2021/06/13 12:27:21;;;;;;;2.60;1.80;;;;;;;;;;5136920;27;20200;-69
2021/06/13 12:27:35;;;;;;;1.70;1.60;;;;;;;;;;5135396;27;20877;-69
2021/06/13 12:30:05;;;;;;;2.13;1.93;;;;;;;;;;5126619;27;20270;-69
2021/06/13 12:32:34;;;;;;;2.30;2.10;;;;;;;;;;5127291;27;20259;-69
2021/06/13 12:35:07;;;;;;;2.13;1.90;;;;;;;;;;5134397;27;20204;-69
2021/06/13 12:37:35;;;;;;;1.97;1.87;;;;;;;;;;5135256;27;20214;-69
2021/06/13 12:40:05;;;;;;;4.07;1.80;;;;;;;;;;5133085;27;20594;-69
2021/06/13 12:42:33;;;;;;;3.17;2.00;;;;;;;;;;5134892;27;20229;-68
2021/06/13 12:45:02;;;;;;;2.17;1.97;;;;;;;;;;5132382;27;20224;-69
2021/06/13 12:47:30;;;;;;;1.77;1.67;;;;;;;;;;5134404;27;20244;-70
2021/06/13 12:50:00;;;;;;;2.00;1.73;;;;;;;;;;5130886;27;20217;-69
2021/06/13 12:52:29;;;;;;;2.50;1.70;;;;;;;;;;5135605;27;20231;-69
2021/06/13 12:54:58;;;;;;;2.07;1.60;;;;;;;;;;5131972;27;20219;-69
2021/06/13 12:57:26;;;;;;;1.73;1.63;;;;;;;;;;5133465;27;20195;-69
2021/06/13 12:59:54;;;;;;;2.47;2.27;;;;;;;;;;5134777;27;20207;-68
2021/06/13 13:02:23;;;;;;;1.60;1.50;;;;;;;;;;5141028;27;20223;-71
2021/06/13 13:04:51;;;;;;;1.60;1.50;;;;;;;;;;5141387;27;20206;-70
2021/06/13 13:07:30;;;;;;;1.57;1.50;;;;;;;;;;5141017;27;20251;-70
2021/06/13 13:10:01;;;;;;;1.43;1.37;;;;;;;;;;5140876;27;20778;-71
2021/06/13 13:12:29;;;;;;;2.63;1.80;;;;;;;;;;5140433;27;20690;-71
2021/06/13 13:15:06;;;;;;;1.80;1.60;;;;;;;;;;5136116;27;20203;-71
2021/06/13 13:17:35;;;;;;;3.60;1.60;;;;;;;;;;5136828;27;20720;-70
2021/06/13 13:20:13;;;;;;;1.80;1.60;;;;;;;;;;5138104;27;20203;-70
2021/06/13 13:22:45;;;;;;;1.70;1.60;;;;;;;;;;5125931;27;20267;-71
2021/06/13 13:25:13;;;;;;;1.47;1.37;;;;;;;;;;5127700;27;20559;-71
2021/06/13 13:27:41;;;;;;;4.03;2.38;;;;;;;;;;5125243;27;20204;-71
2021/06/13 13:30:24;;;;;;;2.13;1.58;;;;;;;;;;5126943;27;20206;-71
2021/06/13 13:32:52;;;;;;;1.25;1.15;;;;;;;;;;5124840;27;20216;-70
2021/06/13 13:35:26;;;;;;;1.52;1.42;;;;;;;;;;5129820;27;20211;-71
2021/06/13 13:37:55;;;;;;;1.77;1.60;;;;;;;;;;5129445;27;20549;-70
2021/06/13 13:40:23;;;;;;;1.60;1.40;;;;;;;;;;5131195;27;20214;-69
2021/06/13 13:42:58;;;;;;;1.42;1.30;;;;;;;;;;5135291;27;20226;-70
2021/06/13 13:45:26;;;;;;;3.15;1.90;;;;;;;;;;5131062;27;20251;-71
2021/06/13 13:47:54;;;;;;;2.75;1.20;;;;;;;;;;5131748;27;20232;-70
2021/06/13 13:50:39;;;;;;;1.73;1.63;;;;;;;;;;5131816;27;20216;-70
2021/06/13 13:53:15;;;;;;;4.10;1.35;;;;;;;;;;5134285;27;20227;-70
2021/06/13 13:55:50;;;;;;;1.63;1.52;;;;;;;;;;5133267;27;20229;-70
2021/06/13 13:58:18;;;;;;;2.80;1.57;;;;;;;;;;5137383;27;20242;-70
2021/06/13 14:00:46;;;;;;;1.80;1.48;;;;;;;;;;5128997;27;20206;-70
2021/06/13 14:03:16;;;;;;;1.60;1.50;;;;;;;;;;5132465;27;20231;-70
2021/06/13 14:05:44;;;;;;;1.75;1.65;;;;;;;;;;5137004;27;20688;-70
2021/06/13 14:08:11;;;;;;;3.00;2.13;;;;;;;;;;5137572;27;20207;-70
2021/06/13 14:10:40;;;;;;;2.00;1.60;;;;;;;;;;5136184;27;20203;-72
2021/06/13 14:13:08;;;;;;;2.25;1.20;;;;;;;;;;5128498;27;20232;-70
2021/06/13 14:15:36;;;;;;;3.05;1.70;;;;;;;;;;5127939;27;20204;-71
2021/06/13 14:18:04;;;;;;;2.13;1.30;;;;;;;;;;5123918;27;20212;-70
2021/06/13 14:20:32;;;;;;;2.45;1.70;;;;;;;;;;5128749;27;20215;-71
2021/06/13 14:23:00;;;;;;;1.30;1.20;;;;;;;;;;5122587;27;20231;-71
2021/06/13 14:25:28;;;;;;;1.77;1.67;;;;;;;;;;5126457;27;20570;-70
2021/06/13 14:27:57;;;;;;;1.88;1.58;;;;;;;;;;5123190;27;20285;-72
2021/06/13 14:30:26;;;;;;;1.60;1.50;;;;;;;;;;5127520;27;20265;-69
2021/06/13 14:32:54;;;;;;;3.05;1.83;;;;;;;;;;5126138;27;20216;-70
2021/06/13 14:35:21;;;;;;;2.10;1.40;;;;;;;;;;5134442;27;20192;-71
2021/06/13 14:37:49;;;;;;;1.60;1.50;;;;;;;;;;5128953;27;20188;-69
2021/06/13 14:40:17;;;;;;;3.55;1.60;;;;;;;;;;5131556;27;20605;-69
2021/06/13 14:42:45;;;;;;;1.70;1.60;;;;;;;;;;5131876;27;20223;-69
2021/06/13 14:45:16;;;;;;;2.50;1.50;;;;;;;;;;5133333;27;20200;-70
2021/06/13 14:47:44;;;;;;;2.05;1.50;;;;;;;;;;5133250;27;20739;-71
2021/06/13 14:50:13;;;;;;;4.07;1.80;;;;;;;;;;5129150;27;20244;-71
2021/06/13 14:52:41;;;;;;;2.67;2.45;;;;;;;;;;5127171;27;20222;-70
2021/06/13 14:55:10;;;;;;;2.15;1.55;;;;;;;;;;5134027;27;20239;-71